首页
METAR-TAF:

METAR-TAF

机场 :

基加利国际机场

吉佳利, 卢旺达

纬度: 01-58S, 经度: 030-07E, 海拔: 1491米

当前天气观测

该预报发布于16分钟前的02:30 UTC
风速4节,风向西
温度 18°C
湿度 77%
气压 1022 hPa
能见度10公里或以上
少量云层高于2600英尺

METAR: HRYR 140230Z 26004KT 9999 FEW026 18/14 Q1022 NOSIG

时间: 04:46 (02:46 UTC)

预报

该预报发布于3小时和46分钟前的23:00 UTC
预报有效从14日的 00点(UTC)到 15日的 06点(UTC)
风速4节,风向西北
能见度10公里或以上
少量云层高于2600英尺
成为
从 14日的 09点(UTC)到 14日的 12点(UTC)
风速10节,风向
多云层高于2500英尺
成为
从 14日的 18点(UTC)到 14日的 21点(UTC)
风速4节,风向西南
少量云层高于2600英尺
成为
从 15日的 00点(UTC)到 15日的 03点(UTC)
风速4节,风向北转西北

TAF: HRYR 132300Z 1400/1506 32004KT 9999 FEW026 BECMG 1409/1412 17010KT BKN025 BECMG 1418/1421 23004KT FEW026 BECMG 1500/1503 34004KT

超过4000个机场的气象观测和天气预报(METAR&TAF报告)。

可查询的气象台以黄色和红色小点在地图上表示。

将鼠标移到小点上方,可查看气象台名称。

然后点击查看天气观测和预报。

如需切换地图:点击带黑十字的绿色按钮放大地图;点击带横线的绿色按钮缩小地图;或者点击绿色箭头查看邻近地区的地图。


METAR-TAF: